sensor_id;sensor_type;location;lat;lon;timestamp;P1;durP1;ratioP1;P2;durP2;ratioP2
14100;SDS011;7127;49.372;8.166;2023-03-01T00:01:10;4.57;;;3.77;;
14100;SDS011;7127;49.372;8.166;2023-03-01T00:03:38;4.53;;;3.77;;
14100;SDS011;7127;49.372;8.166;2023-03-01T00:06:06;5.20;;;3.93;;
14100;SDS011;7127;49.372;8.166;2023-03-01T00:08:33;4.30;;;3.63;;
14100;SDS011;7127;49.372;8.166;2023-03-01T00:11:01;3.90;;;3.47;;
14100;SDS011;7127;49.372;8.166;2023-03-01T00:13:29;3.33;;;2.87;;
14100;SDS011;7127;49.372;8.166;2023-03-01T00:15:56;4.50;;;3.70;;
14100;SDS011;7127;49.372;8.166;2023-03-01T00:18:23;5.40;;;4.27;;
14100;SDS011;7127;49.372;8.166;2023-03-01T00:20:50;7.07;;;4.30;;
14100;SDS011;7127;49.372;8.166;2023-03-01T00:23:19;4.73;;;3.90;;
14100;SDS011;7127;49.372;8.166;2023-03-01T00:25:46;3.97;;;3.27;;
14100;SDS011;7127;49.372;8.166;2023-03-01T00:28:13;3.77;;;3.20;;
14100;SDS011;7127;49.372;8.166;2023-03-01T00:30:40;4.93;;;3.50;;
14100;SDS011;7127;49.372;8.166;2023-03-01T00:33:07;4.37;;;3.20;;
14100;SDS011;7127;49.372;8.166;2023-03-01T00:35:34;5.70;;;4.10;;
14100;SDS011;7127;49.372;8.166;2023-03-01T00:38:03;4.93;;;4.23;;
14100;SDS011;7127;49.372;8.166;2023-03-01T00:40:32;4.93;;;3.93;;
14100;SDS011;7127;49.372;8.166;2023-03-01T00:43:00;4.63;;;3.87;;
14100;SDS011;7127;49.372;8.166;2023-03-01T00:45:28;5.70;;;4.03;;
14100;SDS011;7127;49.372;8.166;2023-03-01T00:47:57;5.20;;;3.73;;
14100;SDS011;7127;49.372;8.166;2023-03-01T00:50:24;4.93;;;3.50;;
14100;SDS011;7127;49.372;8.166;2023-03-01T00:52:52;4.70;;;3.97;;
14100;SDS011;7127;49.372;8.166;2023-03-01T00:55:19;4.40;;;4.00;;
14100;SDS011;7127;49.372;8.166;2023-03-01T00:57:47;5.77;;;4.10;;
14100;SDS011;7127;49.372;8.166;2023-03-01T01:00:14;4.37;;;3.57;;
14100;SDS011;7127;49.372;8.166;2023-03-01T01:02:42;4.83;;;4.07;;
14100;SDS011;7127;49.372;8.166;2023-03-01T01:05:08;7.80;;;5.60;;
14100;SDS011;7127;49.372;8.166;2023-03-01T01:07:35;5.07;;;4.30;;
14100;SDS011;7127;49.372;8.166;2023-03-01T01:10:03;6.20;;;4.70;;
14100;SDS011;7127;49.372;8.166;2023-03-01T01:12:30;4.77;;;3.60;;
14100;SDS011;7127;49.372;8.166;2023-03-01T01:14:59;4.53;;;3.60;;
14100;SDS011;7127;49.372;8.166;2023-03-01T01:17:26;4.27;;;3.87;;
14100;SDS011;7127;49.372;8.166;2023-03-01T01:19:53;4.60;;;3.93;;
14100;SDS011;7127;49.372;8.166;2023-03-01T01:22:20;6.50;;;5.30;;
14100;SDS011;7127;49.372;8.166;2023-03-01T01:24:47;5.80;;;4.93;;
14100;SDS011;7127;49.372;8.166;2023-03-01T01:27:13;5.73;;;4.10;;
14100;SDS011;7127;49.372;8.166;2023-03-01T01:29:40;5.67;;;4.70;;
14100;SDS011;7127;49.372;8.166;2023-03-01T01:32:12;5.00;;;4.37;;
14100;SDS011;7127;49.372;8.166;2023-03-01T01:34:39;5.60;;;4.67;;
14100;SDS011;7127;49.372;8.166;2023-03-01T01:37:05;4.67;;;4.03;;
14100;SDS011;7127;49.372;8.166;2023-03-01T01:39:32;4.90;;;4.30;;
14100;SDS011;7127;49.372;8.166;2023-03-01T01:41:59;4.73;;;4.23;;
14100;SDS011;7127;49.372;8.166;2023-03-01T01:44:28;5.97;;;4.63;;
14100;SDS011;7127;49.372;8.166;2023-03-01T01:46:55;5.40;;;4.33;;
14100;SDS011;7127;49.372;8.166;2023-03-01T01:49:29;6.60;;;5.43;;
14100;SDS011;7127;49.372;8.166;2023-03-01T01:52:01;7.87;;;5.30;;
14100;SDS011;7127;49.372;8.166;2023-03-01T01:54:36;7.17;;;5.40;;
14100;SDS011;7127;49.372;8.166;2023-03-01T01:57:07;6.00;;;4.77;;
14100;SDS011;7127;49.372;8.166;2023-03-01T01:59:38;4.93;;;4.30;;
14100;SDS011;7127;49.372;8.166;2023-03-01T02:02:07;7.63;;;5.67;;
14100;SDS011;7127;49.372;8.166;2023-03-01T02:04:35;6.13;;;4.80;;
14100;SDS011;7127;49.372;8.166;2023-03-01T02:07:03;5.03;;;4.03;;
14100;SDS011;7127;49.372;8.166;2023-03-01T02:09:35;6.07;;;4.87;;
14100;SDS011;7127;49.372;8.166;2023-03-01T02:12:02;5.50;;;4.70;;
14100;SDS011;7127;49.372;8.166;2023-03-01T02:14:30;6.40;;;5.47;;
14100;SDS011;7127;49.372;8.166;2023-03-01T02:16:57;6.53;;;5.17;;
14100;SDS011;7127;49.372;8.166;2023-03-01T02:19:28;5.67;;;4.80;;
14100;SDS011;7127;49.372;8.166;2023-03-01T02:22:10;4.50;;;3.63;;
14100;SDS011;7127;49.372;8.166;2023-03-01T02:24:47;5.47;;;4.57;;
14100;SDS011;7127;49.372;8.166;2023-03-01T02:27:29;6.53;;;4.73;;
14100;SDS011;7127;49.372;8.166;2023-03-01T02:30:03;6.77;;;5.83;;
14100;SDS011;7127;49.372;8.166;2023-03-01T02:32:31;7.10;;;4.87;;
14100;SDS011;7127;49.372;8.166;2023-03-01T02:34:57;5.97;;;4.70;;
14100;SDS011;7127;49.372;8.166;2023-03-01T02:37:24;7.67;;;5.03;;
14100;SDS011;7127;49.372;8.166;2023-03-01T02:39:53;5.43;;;4.23;;
14100;SDS011;7127;49.372;8.166;2023-03-01T02:42:26;4.90;;;4.20;;
14100;SDS011;7127;49.372;8.166;2023-03-01T02:44:56;6.07;;;4.33;;
14100;SDS011;7127;49.372;8.166;2023-03-01T02:47:24;5.10;;;4.23;;
14100;SDS011;7127;49.372;8.166;2023-03-01T02:49:51;8.47;;;6.00;;
14100;SDS011;7127;49.372;8.166;2023-03-01T02:52:23;6.90;;;5.47;;
14100;SDS011;7127;49.372;8.166;2023-03-01T02:55:00;6.80;;;5.17;;
14100;SDS011;7127;49.372;8.166;2023-03-01T02:57:29;5.90;;;4.90;;
14100;SDS011;7127;49.372;8.166;2023-03-01T02:59:59;7.10;;;6.20;;
14100;SDS011;7127;49.372;8.166;2023-03-01T03:02:33;8.50;;;6.60;;
14100;SDS011;7127;49.372;8.166;2023-03-01T03:05:04;12.63;;;6.33;;
14100;SDS011;7127;49.372;8.166;2023-03-01T03:07:34;7.70;;;6.13;;
14100;SDS011;7127;49.372;8.166;2023-03-01T03:10:02;7.40;;;5.57;;
14100;SDS011;7127;49.372;8.166;2023-03-01T03:12:31;6.57;;;5.57;;
14100;SDS011;7127;49.372;8.166;2023-03-01T03:14:58;6.33;;;5.03;;
14100;SDS011;7127;49.372;8.166;2023-03-01T03:17:25;7.37;;;5.33;;
14100;SDS011;7127;49.372;8.166;2023-03-01T03:19:53;5.93;;;4.43;;
14100;SDS011;7127;49.372;8.166;2023-03-01T03:22:20;4.67;;;3.90;;
14100;SDS011;7127;49.372;8.166;2023-03-01T03:24:46;5.63;;;4.40;;
14100;SDS011;7127;49.372;8.166;2023-03-01T03:27:13;4.97;;;4.30;;
14100;SDS011;7127;49.372;8.166;2023-03-01T03:29:40;5.13;;;3.93;;
14100;SDS011;7127;49.372;8.166;2023-03-01T03:32:07;4.90;;;4.40;;
14100;SDS011;7127;49.372;8.166;2023-03-01T03:34:33;6.13;;;4.73;;
14100;SDS011;7127;49.372;8.166;2023-03-01T03:37:02;7.37;;;5.57;;
14100;SDS011;7127;49.372;8.166;2023-03-01T03:39:29;6.03;;;5.00;;
14100;SDS011;7127;49.372;8.166;2023-03-01T03:41:59;7.57;;;5.10;;
14100;SDS011;7127;49.372;8.166;2023-03-01T03:44:26;8.07;;;5.90;;
14100;SDS011;7127;49.372;8.166;2023-03-01T03:46:53;6.73;;;4.90;;
14100;SDS011;7127;49.372;8.166;2023-03-01T03:49:20;8.30;;;5.33;;
14100;SDS011;7127;49.372;8.166;2023-03-01T03:51:47;4.87;;;4.13;;
14100;SDS011;7127;49.372;8.166;2023-03-01T03:54:15;6.37;;;4.00;;
14100;SDS011;7127;49.372;8.166;2023-03-01T03:56:42;5.53;;;4.83;;
14100;SDS011;7127;49.372;8.166;2023-03-01T03:59:09;6.67;;;5.40;;
14100;SDS011;7127;49.372;8.166;2023-03-01T04:01:36;6.20;;;5.20;;
14100;SDS011;7127;49.372;8.166;2023-03-01T04:04:03;6.23;;;5.03;;
14100;SDS011;7127;49.372;8.166;2023-03-01T04:06:35;6.63;;;4.37;;
14100;SDS011;7127;49.372;8.166;2023-03-01T04:09:02;4.57;;;3.87;;
14100;SDS011;7127;49.372;8.166;2023-03-01T04:11:30;6.97;;;5.00;;
14100;SDS011;7127;49.372;8.166;2023-03-01T04:13:59;7.07;;;5.60;;
14100;SDS011;7127;49.372;8.166;2023-03-01T04:16:29;6.27;;;5.00;;
14100;SDS011;7127;49.372;8.166;2023-03-01T04:18:57;6.50;;;5.30;;
14100;SDS011;7127;49.372;8.166;2023-03-01T04:21:25;6.97;;;5.40;;
14100;SDS011;7127;49.372;8.166;2023-03-01T04:23:52;4.93;;;4.40;;
14100;SDS011;7127;49.372;8.166;2023-03-01T04:26:19;6.57;;;5.70;;
14100;SDS011;7127;49.372;8.166;2023-03-01T04:28:48;6.70;;;6.00;;
14100;SDS011;7127;49.372;8.166;2023-03-01T04:31:16;8.27;;;6.23;;
14100;SDS011;7127;49.372;8.166;2023-03-01T04:33:46;6.50;;;4.80;;
14100;SDS011;7127;49.372;8.166;2023-03-01T04:36:16;8.03;;;6.30;;
14100;SDS011;7127;49.372;8.166;2023-03-01T04:38:44;7.40;;;5.90;;
14100;SDS011;7127;49.372;8.166;2023-03-01T04:41:12;7.20;;;5.70;;
14100;SDS011;7127;49.372;8.166;2023-03-01T04:43:40;9.03;;;7.23;;
14100;SDS011;7127;49.372;8.166;2023-03-01T04:46:09;9.03;;;7.17;;
14100;SDS011;7127;49.372;8.166;2023-03-01T04:48:38;9.50;;;7.20;;
14100;SDS011;7127;49.372;8.166;2023-03-01T04:51:06;7.07;;;6.00;;
14100;SDS011;7127;49.372;8.166;2023-03-01T04:53:38;7.23;;;5.80;;
14100;SDS011;7127;49.372;8.166;2023-03-01T04:56:12;7.60;;;5.97;;
14100;SDS011;7127;49.372;8.166;2023-03-01T04:58:39;6.13;;;4.83;;
14100;SDS011;7127;49.372;8.166;2023-03-01T05:01:11;7.30;;;5.60;;
14100;SDS011;7127;49.372;8.166;2023-03-01T05:03:41;7.57;;;5.90;;
14100;SDS011;7127;49.372;8.166;2023-03-01T05:06:09;8.40;;;6.93;;
14100;SDS011;7127;49.372;8.166;2023-03-01T05:08:36;6.33;;;5.43;;
14100;SDS011;7127;49.372;8.166;2023-03-01T05:11:04;8.47;;;6.17;;
14100;SDS011;7127;49.372;8.166;2023-03-01T05:13:33;7.23;;;6.10;;
14100;SDS011;7127;49.372;8.166;2023-03-01T05:16:01;7.90;;;6.50;;
14100;SDS011;7127;49.372;8.166;2023-03-01T05:18:32;9.10;;;6.70;;
14100;SDS011;7127;49.372;8.166;2023-03-01T05:21:01;9.07;;;7.13;;
14100;SDS011;7127;49.372;8.166;2023-03-01T05:23:30;10.53;;;6.63;;
14100;SDS011;7127;49.372;8.166;2023-03-01T05:25:57;8.33;;;6.57;;
14100;SDS011;7127;49.372;8.166;2023-03-01T05:28:24;9.27;;;6.47;;
14100;SDS011;7127;49.372;8.166;2023-03-01T05:30:53;9.47;;;7.60;;
14100;SDS011;7127;49.372;8.166;2023-03-01T05:33:19;9.97;;;8.10;;
14100;SDS011;7127;49.372;8.166;2023-03-01T05:35:48;8.13;;;7.23;;
14100;SDS011;7127;49.372;8.166;2023-03-01T05:38:16;7.93;;;6.70;;
14100;SDS011;7127;49.372;8.166;2023-03-01T05:40:44;6.83;;;5.93;;
14100;SDS011;7127;49.372;8.166;2023-03-01T05:43:13;9.97;;;7.70;;
14100;SDS011;7127;49.372;8.166;2023-03-01T05:45:41;8.87;;;7.13;;
14100;SDS011;7127;49.372;8.166;2023-03-01T05:48:09;7.70;;;5.90;;
14100;SDS011;7127;49.372;8.166;2023-03-01T05:50:38;6.83;;;5.53;;
14100;SDS011;7127;49.372;8.166;2023-03-01T05:53:09;7.90;;;6.60;;
14100;SDS011;7127;49.372;8.166;2023-03-01T05:55:37;7.87;;;6.57;;
14100;SDS011;7127;49.372;8.166;2023-03-01T05:58:06;9.10;;;7.60;;
14100;SDS011;7127;49.372;8.166;2023-03-01T06:00:35;7.83;;;6.40;;
14100;SDS011;7127;49.372;8.166;2023-03-01T06:03:02;7.00;;;6.20;;
14100;SDS011;7127;49.372;8.166;2023-03-01T06:05:29;8.63;;;6.70;;
14100;SDS011;7127;49.372;8.166;2023-03-01T06:07:58;6.80;;;5.50;;
14100;SDS011;7127;49.372;8.166;2023-03-01T06:10:26;10.27;;;6.80;;
14100;SDS011;7127;49.372;8.166;2023-03-01T06:12:54;6.93;;;5.13;;
14100;SDS011;7127;49.372;8.166;2023-03-01T06:15:21;6.70;;;6.00;;
14100;SDS011;7127;49.372;8.166;2023-03-01T06:17:49;7.40;;;5.63;;
14100;SDS011;7127;49.372;8.166;2023-03-01T06:20:17;7.57;;;5.93;;
14100;SDS011;7127;49.372;8.166;2023-03-01T06:22:46;10.03;;;8.13;;
14100;SDS011;7127;49.372;8.166;2023-03-01T06:25:14;8.20;;;6.63;;
14100;SDS011;7127;49.372;8.166;2023-03-01T06:27:44;7.60;;;6.30;;
14100;SDS011;7127;49.372;8.166;2023-03-01T06:30:12;8.50;;;6.37;;
14100;SDS011;7127;49.372;8.166;2023-03-01T06:32:41;6.67;;;5.70;;
14100;SDS011;7127;49.372;8.166;2023-03-01T06:35:08;6.97;;;5.57;;
14100;SDS011;7127;49.372;8.166;2023-03-01T06:37:36;6.57;;;5.40;;
14100;SDS011;7127;49.372;8.166;2023-03-01T06:40:03;6.47;;;5.50;;
14100;SDS011;7127;49.372;8.166;2023-03-01T06:42:33;7.70;;;5.47;;
14100;SDS011;7127;49.372;8.166;2023-03-01T06:45:01;5.90;;;4.90;;
14100;SDS011;7127;49.372;8.166;2023-03-01T06:47:28;8.87;;;6.63;;
14100;SDS011;7127;49.372;8.166;2023-03-01T06:49:55;9.57;;;6.70;;
14100;SDS011;7127;49.372;8.166;2023-03-01T06:52:22;7.30;;;6.20;;
14100;SDS011;7127;49.372;8.166;2023-03-01T06:54:49;8.03;;;6.20;;
14100;SDS011;7127;49.372;8.166;2023-03-01T06:57:16;8.73;;;6.40;;
14100;SDS011;7127;49.372;8.166;2023-03-01T06:59:43;8.43;;;6.87;;
14100;SDS011;7127;49.372;8.166;2023-03-01T07:02:11;7.67;;;5.20;;
14100;SDS011;7127;49.372;8.166;2023-03-01T07:04:39;7.80;;;5.70;;
14100;SDS011;7127;49.372;8.166;2023-03-01T07:07:06;7.13;;;6.17;;
14100;SDS011;7127;49.372;8.166;2023-03-01T07:09:33;6.93;;;6.20;;
14100;SDS011;7127;49.372;8.166;2023-03-01T07:11:59;7.40;;;5.90;;
14100;SDS011;7127;49.372;8.166;2023-03-01T07:14:26;6.80;;;5.27;;
14100;SDS011;7127;49.372;8.166;2023-03-01T07:16:53;7.70;;;5.87;;
14100;SDS011;7127;49.372;8.166;2023-03-01T07:19:22;6.17;;;5.30;;
14100;SDS011;7127;49.372;8.166;2023-03-01T07:21:49;7.73;;;5.93;;
14100;SDS011;7127;49.372;8.166;2023-03-01T07:24:16;9.03;;;7.60;;
14100;SDS011;7127;49.372;8.166;2023-03-01T07:26:43;8.23;;;6.73;;
14100;SDS011;7127;49.372;8.166;2023-03-01T07:29:10;7.97;;;6.80;;
14100;SDS011;7127;49.372;8.166;2023-03-01T07:31:37;7.93;;;5.73;;
14100;SDS011;7127;49.372;8.166;2023-03-01T07:34:04;7.83;;;6.20;;
14100;SDS011;7127;49.372;8.166;2023-03-01T07:36:32;6.23;;;5.57;;
14100;SDS011;7127;49.372;8.166;2023-03-01T07:38:59;6.00;;;5.37;;
14100;SDS011;7127;49.372;8.166;2023-03-01T07:41:27;8.50;;;6.03;;
14100;SDS011;7127;49.372;8.166;2023-03-01T07:43:54;6.33;;;5.13;;
14100;SDS011;7127;49.372;8.166;2023-03-01T07:46:21;6.87;;;5.57;;
14100;SDS011;7127;49.372;8.166;2023-03-01T07:48:48;7.43;;;5.70;;
14100;SDS011;7127;49.372;8.166;2023-03-01T07:51:15;9.00;;;7.13;;
14100;SDS011;7127;49.372;8.166;2023-03-01T07:53:44;8.10;;;7.00;;
14100;SDS011;7127;49.372;8.166;2023-03-01T07:56:13;7.73;;;6.70;;
14100;SDS011;7127;49.372;8.166;2023-03-01T07:58:42;7.63;;;6.10;;
14100;SDS011;7127;49.372;8.166;2023-03-01T08:01:11;7.83;;;6.73;;
14100;SDS011;7127;49.372;8.166;2023-03-01T08:03:38;7.50;;;5.97;;
14100;SDS011;7127;49.372;8.166;2023-03-01T08:06:06;7.23;;;5.70;;
14100;SDS011;7127;49.372;8.166;2023-03-01T08:08:34;9.63;;;8.13;;
14100;SDS011;7127;49.372;8.166;2023-03-01T08:11:04;12.20;;;8.17;;
14100;SDS011;7127;49.372;8.166;2023-03-01T08:13:32;8.67;;;6.70;;
14100;SDS011;7127;49.372;8.166;2023-03-01T08:16:03;8.63;;;6.80;;
14100;SDS011;7127;49.372;8.166;2023-03-01T08:18:31;9.37;;;6.20;;
14100;SDS011;7127;49.372;8.166;2023-03-01T08:21:01;8.10;;;6.30;;
14100;SDS011;7127;49.372;8.166;2023-03-01T08:23:28;7.53;;;6.27;;
14100;SDS011;7127;49.372;8.166;2023-03-01T08:26:04;10.63;;;8.73;;
14100;SDS011;7127;49.372;8.166;2023-03-01T08:28:32;12.33;;;8.63;;
14100;SDS011;7127;49.372;8.166;2023-03-01T08:30:59;9.73;;;8.13;;
14100;SDS011;7127;49.372;8.166;2023-03-01T08:33:26;9.63;;;8.13;;
14100;SDS011;7127;49.372;8.166;2023-03-01T08:36:01;10.00;;;8.27;;
14100;SDS011;7127;49.372;8.166;2023-03-01T08:38:29;9.10;;;7.73;;
14100;SDS011;7127;49.372;8.166;2023-03-01T08:40:58;9.27;;;7.63;;
14100;SDS011;7127;49.372;8.166;2023-03-01T08:43:28;10.17;;;8.10;;
14100;SDS011;7127;49.372;8.166;2023-03-01T08:45:55;7.30;;;6.13;;
14100;SDS011;7127;49.372;8.166;2023-03-01T08:48:22;7.03;;;5.90;;
14100;SDS011;7127;49.372;8.166;2023-03-01T08:50:49;6.97;;;6.10;;
14100;SDS011;7127;49.372;8.166;2023-03-01T08:53:16;8.13;;;6.60;;
14100;SDS011;7127;49.372;8.166;2023-03-01T08:55:43;9.13;;;6.97;;
14100;SDS011;7127;49.372;8.166;2023-03-01T08:58:10;8.73;;;7.47;;
14100;SDS011;7127;49.372;8.166;2023-03-01T09:00:38;8.80;;;7.67;;
14100;SDS011;7127;49.372;8.166;2023-03-01T09:03:05;9.97;;;7.93;;
14100;SDS011;7127;49.372;8.166;2023-03-01T09:05:32;8.33;;;7.07;;
14100;SDS011;7127;49.372;8.166;2023-03-01T09:08:01;8.90;;;6.87;;
14100;SDS011;7127;49.372;8.166;2023-03-01T09:10:28;8.47;;;7.00;;
14100;SDS011;7127;49.372;8.166;2023-03-01T09:12:55;8.57;;;6.60;;
14100;SDS011;7127;49.372;8.166;2023-03-01T09:15:22;8.80;;;7.10;;
14100;SDS011;7127;49.372;8.166;2023-03-01T09:17:50;7.60;;;6.53;;
14100;SDS011;7127;49.372;8.166;2023-03-01T09:20:17;9.63;;;7.03;;
14100;SDS011;7127;49.372;8.166;2023-03-01T09:22:44;9.97;;;7.43;;
14100;SDS011;7127;49.372;8.166;2023-03-01T09:25:11;9.50;;;6.67;;
14100;SDS011;7127;49.372;8.166;2023-03-01T09:27:41;9.63;;;7.23;;
14100;SDS011;7127;49.372;8.166;2023-03-01T09:30:09;8.93;;;7.03;;
14100;SDS011;7127;49.372;8.166;2023-03-01T09:32:38;7.90;;;7.10;;
14100;SDS011;7127;49.372;8.166;2023-03-01T09:35:09;7.57;;;6.57;;
14100;SDS011;7127;49.372;8.166;2023-03-01T09:37:39;8.13;;;6.40;;
14100;SDS011;7127;49.372;8.166;2023-03-01T09:40:12;7.87;;;6.77;;
14100;SDS011;7127;49.372;8.166;2023-03-01T09:42:46;8.33;;;6.60;;
14100;SDS011;7127;49.372;8.166;2023-03-01T09:45:21;7.83;;;6.40;;
14100;SDS011;7127;49.372;8.166;2023-03-01T09:47:53;7.23;;;6.30;;
14100;SDS011;7127;49.372;8.166;2023-03-01T09:50:23;9.07;;;7.20;;
14100;SDS011;7127;49.372;8.166;2023-03-01T09:52:54;8.37;;;7.33;;
14100;SDS011;7127;49.372;8.166;2023-03-01T09:55:29;8.43;;;7.00;;
14100;SDS011;7127;49.372;8.166;2023-03-01T09:58:00;8.80;;;7.10;;
14100;SDS011;7127;49.372;8.166;2023-03-01T10:00:35;11.67;;;7.43;;
14100;SDS011;7127;49.372;8.166;2023-03-01T10:03:11;7.67;;;6.67;;
14100;SDS011;7127;49.372;8.166;2023-03-01T10:05:55;9.80;;;8.20;;
14100;SDS011;7127;49.372;8.166;2023-03-01T10:08:38;7.43;;;6.63;;
14100;SDS011;7127;49.372;8.166;2023-03-01T10:11:17;8.03;;;7.00;;
14100;SDS011;7127;49.372;8.166;2023-03-01T10:13:48;8.57;;;7.07;;
14100;SDS011;7127;49.372;8.166;2023-03-01T10:16:28;8.67;;;7.73;;
14100;SDS011;7127;49.372;8.166;2023-03-01T10:19:05;8.30;;;7.00;;
14100;SDS011;7127;49.372;8.166;2023-03-01T10:21:40;7.83;;;6.70;;
14100;SDS011;7127;49.372;8.166;2023-03-01T10:24:11;10.10;;;8.27;;
14100;SDS011;7127;49.372;8.166;2023-03-01T10:26:43;9.63;;;7.73;;
14100;SDS011;7127;49.372;8.166;2023-03-01T10:29:14;12.10;;;8.13;;
14100;SDS011;7127;49.372;8.166;2023-03-01T10:31:42;9.40;;;7.07;;
14100;SDS011;7127;49.372;8.166;2023-03-01T10:34:11;9.57;;;7.77;;
14100;SDS011;7127;49.372;8.166;2023-03-01T10:36:49;8.60;;;7.57;;
14100;SDS011;7127;49.372;8.166;2023-03-01T10:39:17;9.27;;;6.77;;
14100;SDS011;7127;49.372;8.166;2023-03-01T10:41:53;10.07;;;7.97;;
14100;SDS011;7127;49.372;8.166;2023-03-01T10:44:35;10.03;;;7.67;;
14100;SDS011;7127;49.372;8.166;2023-03-01T10:47:12;8.77;;;7.57;;
14100;SDS011;7127;49.372;8.166;2023-03-01T10:49:51;9.73;;;8.03;;
14100;SDS011;7127;49.372;8.166;2023-03-01T10:52:24;11.80;;;9.27;;
14100;SDS011;7127;49.372;8.166;2023-03-01T10:54:55;11.33;;;8.80;;
14100;SDS011;7127;49.372;8.166;2023-03-01T10:57:28;10.70;;;8.30;;
14100;SDS011;7127;49.372;8.166;2023-03-01T11:02:49;10.57;;;8.40;;
14100;SDS011;7127;49.372;8.166;2023-03-01T11:05:22;10.10;;;7.77;;
14100;SDS011;7127;49.372;8.166;2023-03-01T11:07:52;10.10;;;8.43;;
14100;SDS011;7127;49.372;8.166;2023-03-01T11:10:22;8.77;;;7.50;;
14100;SDS011;7127;49.372;8.166;2023-03-01T11:12:51;11.23;;;8.07;;
14100;SDS011;7127;49.372;8.166;2023-03-01T11:15:23;11.10;;;8.17;;
14100;SDS011;7127;49.372;8.166;2023-03-01T11:17:53;9.13;;;6.90;;
14100;SDS011;7127;49.372;8.166;2023-03-01T11:20:24;12.07;;;9.13;;
14100;SDS011;7127;49.372;8.166;2023-03-01T11:22:57;8.07;;;7.13;;
14100;SDS011;7127;49.372;8.166;2023-03-01T11:25:28;10.67;;;8.50;;
14100;SDS011;7127;49.372;8.166;2023-03-01T11:27:58;11.07;;;9.60;;
14100;SDS011;7127;49.372;8.166;2023-03-01T11:30:28;12.60;;;9.93;;
14100;SDS011;7127;49.372;8.166;2023-03-01T11:33:03;9.60;;;8.00;;
14100;SDS011;7127;49.372;8.166;2023-03-01T11:35:41;9.23;;;7.70;;
14100;SDS011;7127;49.372;8.166;2023-03-01T11:38:16;9.63;;;8.43;;
14100;SDS011;7127;49.372;8.166;2023-03-01T11:40:49;11.43;;;9.53;;
14100;SDS011;7127;49.372;8.166;2023-03-01T11:43:26;13.57;;;10.57;;
14100;SDS011;7127;49.372;8.166;2023-03-01T11:49:05;10.50;;;8.50;;
14100;SDS011;7127;49.372;8.166;2023-03-01T11:51:46;9.27;;;7.60;;
14100;SDS011;7127;49.372;8.166;2023-03-01T11:54:24;9.03;;;7.40;;
14100;SDS011;7127;49.372;8.166;2023-03-01T11:56:57;9.20;;;8.20;;
14100;SDS011;7127;49.372;8.166;2023-03-01T11:59:41;9.87;;;8.37;;
14100;SDS011;7127;49.372;8.166;2023-03-01T12:02:23;10.43;;;7.97;;
14100;SDS011;7127;49.372;8.166;2023-03-01T12:05:24;10.17;;;8.50;;
14100;SDS011;7127;49.372;8.166;2023-03-01T12:08:14;10.27;;;8.20;;
14100;SDS011;7127;49.372;8.166;2023-03-01T12:10:52;9.70;;;8.23;;
14100;SDS011;7127;49.372;8.166;2023-03-01T12:13:36;8.30;;;7.50;;
14100;SDS011;7127;49.372;8.166;2023-03-01T12:16:28;9.33;;;8.03;;
14100;SDS011;7127;49.372;8.166;2023-03-01T12:19:32;7.40;;;6.43;;
14100;SDS011;7127;49.372;8.166;2023-03-01T12:22:15;9.90;;;7.50;;
14100;SDS011;7127;49.372;8.166;2023-03-01T12:24:54;8.03;;;6.50;;
14100;SDS011;7127;49.372;8.166;2023-03-01T12:27:48;7.93;;;7.00;;
14100;SDS011;7127;49.372;8.166;2023-03-01T12:30:35;12.20;;;8.60;;
14100;SDS011;7127;49.372;8.166;2023-03-01T12:33:22;8.33;;;7.43;;
14100;SDS011;7127;49.372;8.166;2023-03-01T12:36:03;9.53;;;7.47;;
14100;SDS011;7127;49.372;8.166;2023-03-01T12:38:56;8.43;;;6.83;;
14100;SDS011;7127;49.372;8.166;2023-03-01T12:41:40;10.53;;;7.93;;
14100;SDS011;7127;49.372;8.166;2023-03-01T12:44:31;9.27;;;7.50;;
14100;SDS011;7127;49.372;8.166;2023-03-01T12:47:15;8.77;;;7.70;;
14100;SDS011;7127;49.372;8.166;2023-03-01T12:49:54;11.37;;;8.97;;
14100;SDS011;7127;49.372;8.166;2023-03-01T12:52:26;7.87;;;7.07;;
14100;SDS011;7127;49.372;8.166;2023-03-01T12:55:00;9.90;;;7.17;;
14100;SDS011;7127;49.372;8.166;2023-03-01T12:57:29;7.83;;;6.90;;
14100;SDS011;7127;49.372;8.166;2023-03-01T13:00:09;8.00;;;7.13;;
14100;SDS011;7127;49.372;8.166;2023-03-01T13:02:49;8.30;;;7.20;;
14100;SDS011;7127;49.372;8.166;2023-03-01T13:05:26;8.37;;;7.00;;
14100;SDS011;7127;49.372;8.166;2023-03-01T13:08:05;8.20;;;6.97;;
14100;SDS011;7127;49.372;8.166;2023-03-01T13:10:41;7.70;;;6.90;;
14100;SDS011;7127;49.372;8.166;2023-03-01T13:13:13;8.90;;;7.60;;
14100;SDS011;7127;49.372;8.166;2023-03-01T13:15:47;7.20;;;6.50;;
14100;SDS011;7127;49.372;8.166;2023-03-01T13:18:29;8.87;;;6.00;;
14100;SDS011;7127;49.372;8.166;2023-03-01T13:20:57;10.07;;;7.73;;
14100;SDS011;7127;49.372;8.166;2023-03-01T13:23:27;8.63;;;7.10;;
14100;SDS011;7127;49.372;8.166;2023-03-01T13:26:03;8.07;;;6.57;;
14100;SDS011;7127;49.372;8.166;2023-03-01T13:28:38;8.43;;;7.53;;
14100;SDS011;7127;49.372;8.166;2023-03-01T13:37:25;6.97;;;6.27;;
14100;SDS011;7127;49.372;8.166;2023-03-01T13:39:54;6.63;;;5.63;;
14100;SDS011;7127;49.372;8.166;2023-03-01T13:45:19;8.67;;;7.10;;
14100;SDS011;7127;49.372;8.166;2023-03-01T13:47:54;7.20;;;6.17;;
14100;SDS011;7127;49.372;8.166;2023-03-01T13:50:24;7.10;;;6.40;;
14100;SDS011;7127;49.372;8.166;2023-03-01T13:52:55;9.67;;;6.20;;
14100;SDS011;7127;49.372;8.166;2023-03-01T13:55:26;9.57;;;7.53;;
14100;SDS011;7127;49.372;8.166;2023-03-01T13:57:59;8.33;;;6.47;;
14100;SDS011;7127;49.372;8.166;2023-03-01T14:00:35;8.57;;;6.20;;
14100;SDS011;7127;49.372;8.166;2023-03-01T14:03:05;6.67;;;5.97;;
14100;SDS011;7127;49.372;8.166;2023-03-01T14:05:36;7.63;;;6.40;;
14100;SDS011;7127;49.372;8.166;2023-03-01T14:08:05;7.00;;;6.30;;
14100;SDS011;7127;49.372;8.166;2023-03-01T14:10:52;7.63;;;5.93;;
14100;SDS011;7127;49.372;8.166;2023-03-01T14:13:39;6.87;;;5.50;;
14100;SDS011;7127;49.372;8.166;2023-03-01T14:16:19;6.67;;;5.77;;
14100;SDS011;7127;49.372;8.166;2023-03-01T14:18:58;7.13;;;6.33;;
14100;SDS011;7127;49.372;8.166;2023-03-01T14:21:34;7.50;;;6.43;;
14100;SDS011;7127;49.372;8.166;2023-03-01T14:24:01;7.47;;;6.23;;
14100;SDS011;7127;49.372;8.166;2023-03-01T14:26:29;5.93;;;5.33;;
14100;SDS011;7127;49.372;8.166;2023-03-01T14:28:58;7.60;;;6.27;;
14100;SDS011;7127;49.372;8.166;2023-03-01T14:31:35;6.23;;;5.33;;
14100;SDS011;7127;49.372;8.166;2023-03-01T14:34:05;7.77;;;6.77;;
14100;SDS011;7127;49.372;8.166;2023-03-01T14:36:33;6.97;;;5.67;;
14100;SDS011;7127;49.372;8.166;2023-03-01T14:39:00;7.37;;;5.80;;
14100;SDS011;7127;49.372;8.166;2023-03-01T14:41:31;7.57;;;6.57;;
14100;SDS011;7127;49.372;8.166;2023-03-01T14:44:01;7.03;;;5.90;;
14100;SDS011;7127;49.372;8.166;2023-03-01T14:46:32;7.93;;;6.00;;
14100;SDS011;7127;49.372;8.166;2023-03-01T14:49:02;7.13;;;5.90;;
14100;SDS011;7127;49.372;8.166;2023-03-01T14:51:34;6.57;;;5.57;;
14100;SDS011;7127;49.372;8.166;2023-03-01T14:54:03;6.03;;;5.10;;
14100;SDS011;7127;49.372;8.166;2023-03-01T14:56:42;6.93;;;5.53;;
14100;SDS011;7127;49.372;8.166;2023-03-01T14:59:10;5.90;;;5.30;;
14100;SDS011;7127;49.372;8.166;2023-03-01T15:01:37;6.57;;;5.57;;
14100;SDS011;7127;49.372;8.166;2023-03-01T15:04:08;6.10;;;5.33;;
14100;SDS011;7127;49.372;8.166;2023-03-01T15:06:38;6.37;;;5.37;;
14100;SDS011;7127;49.372;8.166;2023-03-01T15:09:05;9.07;;;6.47;;
14100;SDS011;7127;49.372;8.166;2023-03-01T15:11:39;8.13;;;6.33;;
14100;SDS011;7127;49.372;8.166;2023-03-01T15:16:54;6.90;;;5.13;;
14100;SDS011;7127;49.372;8.166;2023-03-01T15:19:22;6.53;;;5.60;;
14100;SDS011;7127;49.372;8.166;2023-03-01T15:21:52;5.93;;;4.73;;
14100;SDS011;7127;49.372;8.166;2023-03-01T15:24:20;5.20;;;4.23;;
14100;SDS011;7127;49.372;8.166;2023-03-01T15:26:51;4.90;;;4.10;;
14100;SDS011;7127;49.372;8.166;2023-03-01T15:29:21;5.17;;;4.33;;
14100;SDS011;7127;49.372;8.166;2023-03-01T15:31:55;6.73;;;4.47;;
14100;SDS011;7127;49.372;8.166;2023-03-01T15:34:26;4.83;;;4.23;;
14100;SDS011;7127;49.372;8.166;2023-03-01T15:36:54;4.97;;;4.03;;
14100;SDS011;7127;49.372;8.166;2023-03-01T15:39:29;4.43;;;4.03;;